Time;durP1;ratioP1;P1;durP2;ratioP2;P2;SDS_P1;SDS_P2;PMS_P1;PMS_P2;Temp;Humidity;BMP_temperature;BMP_pressure;BME280_temperature;BME280_humidity;BME280_pressure;Samples;Min_cycle;Max_cycle;Signal;HPM_P1;HPM_P2
2023/05/20 00:01:48;;;;;;;1.00;1.00;;;;;;;;;;4988776;28;20197;-57
2023/05/20 00:04:15;;;;;;;0.70;0.70;;;;;;;;;;4988740;28;20747;-57
2023/05/20 00:06:44;;;;;;;0.85;0.85;;;;;;;;;;4989894;28;20218;-58
2023/05/20 00:09:11;;;;;;;1.38;1.10;;;;;;;;;;4988607;28;20210;-57
2023/05/20 00:11:38;;;;;;;1.02;1.00;;;;;;;;;;5000083;28;20716;-57
2023/05/20 00:14:05;;;;;;;0.60;0.60;;;;;;;;;;4991115;28;20217;-57
2023/05/20 00:16:32;;;;;;;0.82;0.82;;;;;;;;;;5005504;28;20217;-57
2023/05/20 00:18:59;;;;;;;2.63;0.85;;;;;;;;;;5007449;28;20609;-57
2023/05/20 00:21:26;;;;;;;0.77;0.57;;;;;;;;;;4999193;28;20229;-57
2023/05/20 00:23:55;;;;;;;0.90;0.90;;;;;;;;;;5007064;28;20237;-57
2023/05/20 00:26:22;;;;;;;4.13;0.95;;;;;;;;;;5006473;28;20217;-57
2023/05/20 00:28:49;;;;;;;0.95;0.95;;;;;;;;;;4988677;28;20209;-57
2023/05/20 00:31:16;;;;;;;0.70;0.70;;;;;;;;;;4988499;28;20923;-57
2023/05/20 00:33:43;;;;;;;0.93;0.93;;;;;;;;;;4988230;28;20711;-57
2023/05/20 00:36:10;;;;;;;1.85;0.55;;;;;;;;;;4988249;28;20209;-57
2023/05/20 00:38:37;;;;;;;0.73;0.73;;;;;;;;;;4988185;28;20209;-57
2023/05/20 00:41:05;;;;;;;0.80;0.80;;;;;;;;;;4988387;28;20202;-57
2023/05/20 00:43:32;;;;;;;1.00;1.00;;;;;;;;;;4999038;28;20205;-57
2023/05/20 00:46:00;;;;;;;1.13;1.00;;;;;;;;;;4998749;28;20641;-57
2023/05/20 00:48:30;;;;;;;3.63;1.00;;;;;;;;;;4989296;28;20259;-57
2023/05/20 00:50:57;;;;;;;0.90;0.90;;;;;;;;;;4988506;28;20243;-57
2023/05/20 00:53:24;;;;;;;1.23;0.82;;;;;;;;;;4992175;28;20225;-57
2023/05/20 00:55:51;;;;;;;1.08;0.98;;;;;;;;;;4996831;28;20205;-55
2023/05/20 00:58:19;;;;;;;0.80;0.80;;;;;;;;;;5004538;28;20315;-55
2023/05/20 01:00:46;;;;;;;0.75;0.75;;;;;;;;;;5004200;28;20213;-55
2023/05/20 01:03:13;;;;;;;0.70;0.70;;;;;;;;;;5004799;28;20216;-55
2023/05/20 01:05:40;;;;;;;0.57;0.57;;;;;;;;;;5003473;28;20209;-55
2023/05/20 01:08:07;;;;;;;2.10;1.10;;;;;;;;;;5005828;28;20209;-57
2023/05/20 01:10:36;;;;;;;1.00;0.90;;;;;;;;;;5006285;28;20220;-57
2023/05/20 01:13:06;;;;;;;0.88;0.88;;;;;;;;;;5007300;28;20254;-57
2023/05/20 01:15:34;;;;;;;0.60;0.60;;;;;;;;;;5006740;28;20671;-57
2023/05/20 01:18:04;;;;;;;1.13;1.13;;;;;;;;;;4989851;28;20221;-57
2023/05/20 01:20:32;;;;;;;2.17;0.90;;;;;;;;;;4999476;28;20240;-57
2023/05/20 01:23:00;;;;;;;1.17;0.90;;;;;;;;;;4997932;28;20236;-57
2023/05/20 01:25:27;;;;;;;0.95;0.95;;;;;;;;;;4988241;28;20239;-57
2023/05/20 01:27:56;;;;;;;1.08;1.08;;;;;;;;;;4987637;28;20214;-57
2023/05/20 01:30:24;;;;;;;0.50;0.50;;;;;;;;;;4992262;28;20210;-58
2023/05/20 01:32:54;;;;;;;0.90;0.90;;;;;;;;;;4991311;28;20268;-57
2023/05/20 01:35:22;;;;;;;0.90;0.90;;;;;;;;;;4991563;28;20283;-57
2023/05/20 01:37:50;;;;;;;0.80;0.80;;;;;;;;;;4991591;28;20842;-57
2023/05/20 01:40:19;;;;;;;2.10;0.90;;;;;;;;;;4992464;28;20263;-57
2023/05/20 01:42:51;;;;;;;1.07;0.93;;;;;;;;;;4991284;28;20358;-57
2023/05/20 01:45:18;;;;;;;0.90;0.90;;;;;;;;;;4991436;28;20708;-57
2023/05/20 01:47:46;;;;;;;1.00;1.00;;;;;;;;;;4991053;28;20240;-57
2023/05/20 01:50:13;;;;;;;0.80;0.80;;;;;;;;;;4998274;28;20650;-57
2023/05/20 01:52:40;;;;;;;0.77;0.77;;;;;;;;;;5010612;28;20240;-57
2023/05/20 01:55:07;;;;;;;0.77;0.77;;;;;;;;;;4993082;28;20209;-57
2023/05/20 01:57:35;;;;;;;1.30;0.90;;;;;;;;;;4994423;28;20718;-57
2023/05/20 02:00:02;;;;;;;1.47;0.80;;;;;;;;;;4992174;28;20696;-57
2023/05/20 02:02:29;;;;;;;0.97;0.90;;;;;;;;;;5007553;28;20259;-58
2023/05/20 02:04:56;;;;;;;0.80;0.80;;;;;;;;;;4996577;28;20217;-58
2023/05/20 02:07:23;;;;;;;1.10;1.10;;;;;;;;;;4991739;28;20201;-57
2023/05/20 02:09:50;;;;;;;2.03;0.90;;;;;;;;;;5003280;28;20204;-57
2023/05/20 02:12:17;;;;;;;1.20;1.20;;;;;;;;;;5008282;28;20233;-57
2023/05/20 02:14:46;;;;;;;1.00;1.00;;;;;;;;;;4990609;28;20596;-57
2023/05/20 02:17:15;;;;;;;0.70;0.70;;;;;;;;;;4991752;28;20197;-57
2023/05/20 02:19:42;;;;;;;1.03;1.00;;;;;;;;;;4990684;28;20209;-57
2023/05/20 02:22:09;;;;;;;0.70;0.70;;;;;;;;;;5002871;28;20217;-57
2023/05/20 02:24:36;;;;;;;5.30;1.20;;;;;;;;;;5008442;28;20282;-57
2023/05/20 02:27:03;;;;;;;1.27;1.00;;;;;;;;;;5008523;28;20216;-57
2023/05/20 02:29:30;;;;;;;1.10;1.00;;;;;;;;;;5008026;28;20213;-58
2023/05/20 02:31:59;;;;;;;1.17;1.07;;;;;;;;;;4990717;28;20252;-57
2023/05/20 02:34:26;;;;;;;1.30;1.20;;;;;;;;;;4990592;28;20229;-57
2023/05/20 02:36:53;;;;;;;0.77;0.40;;;;;;;;;;4990160;28;20217;-57
2023/05/20 02:39:20;;;;;;;1.00;1.00;;;;;;;;;;4989979;28;20245;-57
2023/05/20 02:41:47;;;;;;;1.10;0.97;;;;;;;;;;4989682;28;20563;-57
2023/05/20 02:44:15;;;;;;;1.00;1.00;;;;;;;;;;4994027;28;20193;-57
2023/05/20 02:46:42;;;;;;;0.87;0.87;;;;;;;;;;4990045;28;20548;-57
2023/05/20 02:49:10;;;;;;;1.07;1.07;;;;;;;;;;4991256;28;20264;-57
2023/05/20 02:51:37;;;;;;;1.20;0.83;;;;;;;;;;4996151;28;20620;-58
2023/05/20 02:54:04;;;;;;;4.03;1.10;;;;;;;;;;4997274;28;20327;-57
2023/05/20 02:56:32;;;;;;;1.10;1.10;;;;;;;;;;4999230;28;20240;-58
2023/05/20 02:58:59;;;;;;;1.10;1.10;;;;;;;;;;5008428;28;20300;-57
2023/05/20 03:01:26;;;;;;;1.43;1.33;;;;;;;;;;5008541;28;20223;-57
2023/05/20 03:03:53;;;;;;;1.13;1.13;;;;;;;;;;5009049;28;20208;-57
2023/05/20 03:06:21;;;;;;;1.00;1.00;;;;;;;;;;5007739;28;20271;-57
2023/05/20 03:08:48;;;;;;;0.97;0.97;;;;;;;;;;4993193;28;20214;-57
2023/05/20 03:11:15;;;;;;;3.27;1.00;;;;;;;;;;4989930;28;20268;-57
2023/05/20 03:13:42;;;;;;;1.10;1.07;;;;;;;;;;4990811;28;20228;-57
2023/05/20 03:16:11;;;;;;;1.20;1.20;;;;;;;;;;5000346;28;20201;-57
2023/05/20 03:18:38;;;;;;;0.83;0.83;;;;;;;;;;5006728;28;20227;-57
2023/05/20 03:21:05;;;;;;;0.90;0.90;;;;;;;;;;5004848;28;20260;-57
2023/05/20 03:23:34;;;;;;;1.43;1.33;;;;;;;;;;5000297;28;20242;-57
2023/05/20 03:26:02;;;;;;;0.97;0.97;;;;;;;;;;4989253;28;20591;-57
2023/05/20 03:28:29;;;;;;;1.20;1.20;;;;;;;;;;4989362;28;20296;-57
2023/05/20 03:30:56;;;;;;;0.93;0.93;;;;;;;;;;4990733;28;20256;-57
2023/05/20 03:33:24;;;;;;;1.17;1.17;;;;;;;;;;5004858;28;20228;-57
2023/05/20 03:35:52;;;;;;;1.33;1.33;;;;;;;;;;5008462;28;20209;-57
2023/05/20 03:38:19;;;;;;;1.07;1.07;;;;;;;;;;5007138;28;20649;-57
2023/05/20 03:40:47;;;;;;;0.77;0.77;;;;;;;;;;5000622;28;20202;-58
2023/05/20 03:43:14;;;;;;;2.97;1.20;;;;;;;;;;4990348;28;20212;-58
2023/05/20 03:45:41;;;;;;;1.10;1.10;;;;;;;;;;4991376;28;20214;-57
2023/05/20 03:48:08;;;;;;;1.17;1.17;;;;;;;;;;4988801;28;20216;-57
2023/05/20 03:50:35;;;;;;;1.40;1.20;;;;;;;;;;4990774;28;20268;-57
2023/05/20 03:53:02;;;;;;;0.90;0.90;;;;;;;;;;5004999;28;20233;-57
2023/05/20 03:55:31;;;;;;;2.83;1.33;;;;;;;;;;4996592;28;20217;-57
2023/05/20 03:58:00;;;;;;;1.23;1.13;;;;;;;;;;4988843;28;20235;-57
2023/05/20 04:00:29;;;;;;;1.30;1.27;;;;;;;;;;4998985;28;20248;-57
2023/05/20 04:02:56;;;;;;;2.50;1.30;;;;;;;;;;5007537;28;20205;-57
2023/05/20 04:05:23;;;;;;;1.30;1.30;;;;;;;;;;5006745;28;20205;-57
2023/05/20 04:07:50;;;;;;;2.13;1.30;;;;;;;;;;5007989;28;20295;-57
2023/05/20 04:10:19;;;;;;;1.60;1.27;;;;;;;;;;5003272;28;20205;-57
2023/05/20 04:12:46;;;;;;;0.40;0.40;;;;;;;;;;5002081;28;20284;-57
2023/05/20 04:15:14;;;;;;;1.40;1.40;;;;;;;;;;4991739;28;20248;-57
2023/05/20 04:17:42;;;;;;;8.10;1.67;;;;;;;;;;5007827;28;20213;-57
2023/05/20 04:20:10;;;;;;;1.10;1.10;;;;;;;;;;4994526;28;20220;-57
2023/05/20 04:22:38;;;;;;;1.23;1.23;;;;;;;;;;5002814;28;20609;-57
2023/05/20 04:25:05;;;;;;;5.70;1.27;;;;;;;;;;5005246;28;20304;-57
2023/05/20 04:27:33;;;;;;;1.30;0.63;;;;;;;;;;5007920;28;20224;-57
2023/05/20 04:30:01;;;;;;;1.03;1.03;;;;;;;;;;4995911;28;20300;-57
2023/05/20 04:32:29;;;;;;;1.20;1.10;;;;;;;;;;4989164;28;20208;-57
2023/05/20 04:34:57;;;;;;;2.67;0.80;;;;;;;;;;5007885;28;20232;-57
2023/05/20 04:37:24;;;;;;;0.97;0.93;;;;;;;;;;5004202;28;20228;-57
2023/05/20 04:39:51;;;;;;;1.07;1.07;;;;;;;;;;4990538;28;20228;-57
2023/05/20 04:42:20;;;;;;;1.37;1.20;;;;;;;;;;4989077;28;20216;-57
2023/05/20 04:44:47;;;;;;;1.60;1.50;;;;;;;;;;4987959;28;20228;-57
2023/05/20 04:47:14;;;;;;;2.50;2.30;;;;;;;;;;4995626;28;20308;-57
2023/05/20 04:49:44;;;;;;;1.73;1.63;;;;;;;;;;4988506;28;20217;-57
2023/05/20 04:52:11;;;;;;;1.83;1.43;;;;;;;;;;4992249;28;20255;-57
2023/05/20 04:54:39;;;;;;;1.90;0.90;;;;;;;;;;4996365;28;20232;-58
2023/05/20 04:57:06;;;;;;;1.20;1.20;;;;;;;;;;4992813;28;20213;-57
2023/05/20 04:59:33;;;;;;;1.87;1.77;;;;;;;;;;4990255;28;20305;-57
2023/05/20 05:02:00;;;;;;;2.13;1.10;;;;;;;;;;5007472;28;20205;-57
2023/05/20 05:04:27;;;;;;;1.30;1.30;;;;;;;;;;4999266;28;20656;-57
2023/05/20 05:06:55;;;;;;;1.87;1.40;;;;;;;;;;4994291;28;20267;-57
2023/05/20 05:09:22;;;;;;;1.67;1.57;;;;;;;;;;4994428;28;20205;-56
2023/05/20 05:11:49;;;;;;;1.67;1.57;;;;;;;;;;4995671;28;20209;-57
2023/05/20 05:14:17;;;;;;;1.20;1.20;;;;;;;;;;5006273;28;20620;-57
2023/05/20 05:16:44;;;;;;;1.33;1.33;;;;;;;;;;5009513;28;20204;-57
2023/05/20 05:19:12;;;;;;;1.50;1.00;;;;;;;;;;5000659;28;20211;-55
2023/05/20 05:21:39;;;;;;;1.50;1.40;;;;;;;;;;5006689;28;20220;-55
2023/05/20 05:24:08;;;;;;;2.10;1.10;;;;;;;;;;5012070;28;20244;-55
2023/05/20 05:26:35;;;;;;;1.33;0.97;;;;;;;;;;5010934;28;20304;-55
2023/05/20 05:29:02;;;;;;;1.52;1.52;;;;;;;;;;5013185;28;20262;-57
2023/05/20 05:31:29;;;;;;;1.73;1.63;;;;;;;;;;5012343;28;20197;-54
2023/05/20 05:33:56;;;;;;;7.30;1.75;;;;;;;;;;5005765;28;20231;-57
2023/05/20 05:36:24;;;;;;;0.95;0.95;;;;;;;;;;4995209;28;20682;-58
2023/05/20 05:38:51;;;;;;;1.52;1.48;;;;;;;;;;4994057;28;20308;-58
2023/05/20 05:41:20;;;;;;;5.60;0.70;;;;;;;;;;4997415;28;20728;-57
2023/05/20 05:43:47;;;;;;;2.03;1.60;;;;;;;;;;5013656;28;20209;-57
2023/05/20 05:46:14;;;;;;;2.92;1.45;;;;;;;;;;5010858;28;20212;-58
2023/05/20 05:48:41;;;;;;;1.52;1.52;;;;;;;;;;5011592;28;20209;-58
2023/05/20 05:51:09;;;;;;;1.08;1.08;;;;;;;;;;4994377;28;20209;-57
2023/05/20 05:53:36;;;;;;;2.28;0.90;;;;;;;;;;5009048;28;20225;-57
2023/05/20 05:56:03;;;;;;;2.03;1.92;;;;;;;;;;5000660;28;20569;-57
2023/05/20 05:58:31;;;;;;;1.58;1.48;;;;;;;;;;5013603;28;20232;-58
2023/05/20 06:00:59;;;;;;;1.27;1.27;;;;;;;;;;5003569;28;20233;-58
2023/05/20 06:03:26;;;;;;;1.98;1.42;;;;;;;;;;4993818;28;20208;-57
2023/05/20 06:05:53;;;;;;;1.85;1.75;;;;;;;;;;5003580;28;20639;-56
2023/05/20 06:08:20;;;;;;;2.03;1.95;;;;;;;;;;5008063;28;20266;-58
2023/05/20 06:10:48;;;;;;;1.33;1.33;;;;;;;;;;4995789;28;20205;-58
2023/05/20 06:13:15;;;;;;;1.95;1.80;;;;;;;;;;4994211;28;20316;-58
2023/05/20 06:15:44;;;;;;;1.90;1.88;;;;;;;;;;5007666;28;20201;-59
2023/05/20 06:18:11;;;;;;;1.40;1.40;;;;;;;;;;5003491;28;20252;-58
2023/05/20 06:20:38;;;;;;;1.23;1.23;;;;;;;;;;5015544;28;20273;-57
2023/05/20 06:23:05;;;;;;;2.10;1.92;;;;;;;;;;5009576;28;20299;-58
2023/05/20 06:25:32;;;;;;;1.75;1.65;;;;;;;;;;5005742;28;20218;-58
2023/05/20 06:27:59;;;;;;;1.77;1.67;;;;;;;;;;4997502;28;20222;-58
2023/05/20 06:30:26;;;;;;;1.00;1.00;;;;;;;;;;5009851;28;20705;-58
2023/05/20 06:32:55;;;;;;;2.35;2.13;;;;;;;;;;5009665;28;20240;-57
2023/05/20 06:35:22;;;;;;;1.77;1.67;;;;;;;;;;4990606;28;20283;-58
2023/05/20 06:37:49;;;;;;;2.33;1.90;;;;;;;;;;4997693;28;20206;-58
2023/05/20 06:40:16;;;;;;;1.90;1.80;;;;;;;;;;5009677;28;20213;-57
2023/05/20 06:42:43;;;;;;;2.58;2.38;;;;;;;;;;5009093;28;20667;-57
2023/05/20 06:45:12;;;;;;;1.95;1.58;;;;;;;;;;5003224;28;20284;-57
2023/05/20 06:47:39;;;;;;;1.58;1.48;;;;;;;;;;4989663;28;20927;-58
2023/05/20 06:50:08;;;;;;;1.67;1.58;;;;;;;;;;4990837;28;20315;-58
2023/05/20 06:52:35;;;;;;;2.22;1.90;;;;;;;;;;4995376;28;20213;-58
2023/05/20 06:55:02;;;;;;;2.30;2.03;;;;;;;;;;5007499;28;20221;-57
2023/05/20 06:57:29;;;;;;;1.70;1.70;;;;;;;;;;4997413;28;20209;-58
2023/05/20 06:59:56;;;;;;;1.98;1.75;;;;;;;;;;5000621;28;20244;-58
2023/05/20 07:02:23;;;;;;;1.52;1.52;;;;;;;;;;4993810;28;20201;-58
2023/05/20 07:04:50;;;;;;;1.42;0.85;;;;;;;;;;5000348;28;20209;-58
2023/05/20 07:07:19;;;;;;;1.85;1.75;;;;;;;;;;4994950;28;20686;-58
2023/05/20 07:09:46;;;;;;;2.15;2.00;;;;;;;;;;5003407;28;20206;-58
2023/05/20 07:12:13;;;;;;;1.60;1.60;;;;;;;;;;5002671;28;20347;-58
2023/05/20 07:14:40;;;;;;;2.22;2.13;;;;;;;;;;4996282;28;20328;-57
2023/05/20 07:17:07;;;;;;;2.00;1.95;;;;;;;;;;4998987;28;20210;-58
2023/05/20 07:19:34;;;;;;;2.13;2.03;;;;;;;;;;5004891;28;20267;-58
2023/05/20 07:22:01;;;;;;;2.33;2.17;;;;;;;;;;5007419;28;20208;-58
2023/05/20 07:24:29;;;;;;;1.33;1.23;;;;;;;;;;5003238;28;20206;-57
2023/05/20 07:26:57;;;;;;;2.28;2.17;;;;;;;;;;4988948;28;20553;-57
2023/05/20 07:29:24;;;;;;;2.25;2.15;;;;;;;;;;5002293;28;20266;-56
2023/05/20 07:31:51;;;;;;;2.15;2.00;;;;;;;;;;4989541;28;20657;-58
2023/05/20 07:34:18;;;;;;;2.17;2.08;;;;;;;;;;4991849;28;20233;-57
2023/05/20 07:36:45;;;;;;;3.08;2.80;;;;;;;;;;5008893;28;20212;-58
2023/05/20 07:39:13;;;;;;;2.70;2.50;;;;;;;;;;4989569;28;20213;-57
2023/05/20 07:41:41;;;;;;;1.98;1.88;;;;;;;;;;5009006;28;20239;-58
2023/05/20 07:44:10;;;;;;;2.17;2.00;;;;;;;;;;4990244;28;20735;-57
2023/05/20 07:46:37;;;;;;;3.22;2.35;;;;;;;;;;4989196;28;20229;-57
2023/05/20 07:49:05;;;;;;;2.85;2.65;;;;;;;;;;5007334;28;20228;-56
2023/05/20 07:51:32;;;;;;;2.97;2.80;;;;;;;;;;5008617;28;20227;-58
2023/05/20 07:53:59;;;;;;;2.58;2.47;;;;;;;;;;4990646;28;20205;-57
2023/05/20 07:56:27;;;;;;;2.78;2.55;;;;;;;;;;4994194;28;20231;-59
2023/05/20 07:58:57;;;;;;;2.25;2.13;;;;;;;;;;5002006;28;20225;-62
2023/05/20 08:01:24;;;;;;;2.65;2.35;;;;;;;;;;5001588;28;20363;-59
2023/05/20 08:03:51;;;;;;;2.60;2.40;;;;;;;;;;5008622;28;20232;-59
2023/05/20 08:06:19;;;;;;;3.28;2.92;;;;;;;;;;5007063;28;20232;-57
2023/05/20 08:08:46;;;;;;;2.70;2.50;;;;;;;;;;5008270;28;20220;-58
2023/05/20 08:11:13;;;;;;;3.25;3.03;;;;;;;;;;5002115;28;20208;-58
2023/05/20 08:13:41;;;;;;;2.75;2.55;;;;;;;;;;5008618;28;20209;-59
2023/05/20 08:16:09;;;;;;;3.22;2.20;;;;;;;;;;5005978;28;20232;-57
2023/05/20 08:18:37;;;;;;;2.65;2.45;;;;;;;;;;5008233;28;20308;-58
2023/05/20 08:21:05;;;;;;;1.92;1.83;;;;;;;;;;5004083;28;20321;-58
2023/05/20 08:23:32;;;;;;;3.50;3.30;;;;;;;;;;5006364;28;20244;-57
2023/05/20 08:26:01;;;;;;;3.65;3.05;;;;;;;;;;4996327;28;20311;-57
2023/05/20 08:28:28;;;;;;;3.20;2.83;;;;;;;;;;4988776;28;20290;-58
2023/05/20 08:30:55;;;;;;;3.30;3.10;;;;;;;;;;4989900;28;20240;-57
2023/05/20 08:33:23;;;;;;;2.05;1.90;;;;;;;;;;5003699;28;20197;-58
2023/05/20 08:35:50;;;;;;;2.92;2.72;;;;;;;;;;5006473;28;20781;-58
2023/05/20 08:38:17;;;;;;;4.38;2.83;;;;;;;;;;4994963;28;20603;-58
2023/05/20 08:40:44;;;;;;;2.88;2.67;;;;;;;;;;4998570;28;20217;-58
2023/05/20 08:43:11;;;;;;;2.90;2.67;;;;;;;;;;4996916;28;20624;-58
2023/05/20 08:45:39;;;;;;;3.08;2.92;;;;;;;;;;4996070;28;20208;-58
2023/05/20 08:48:06;;;;;;;3.08;2.70;;;;;;;;;;5003311;28;20674;-58
2023/05/20 08:50:35;;;;;;;3.00;2.80;;;;;;;;;;4998778;28;20217;-61
2023/05/20 08:53:02;;;;;;;3.70;2.88;;;;;;;;;;5002394;28;20256;-58
2023/05/20 08:55:33;;;;;;;3.47;3.22;;;;;;;;;;4987840;28;20217;-58
2023/05/20 08:58:00;;;;;;;3.33;3.10;;;;;;;;;;4993946;28;20213;-58
2023/05/20 09:00:28;;;;;;;3.10;2.90;;;;;;;;;;4987095;28;20202;-58
2023/05/20 09:02:55;;;;;;;3.47;3.17;;;;;;;;;;4992990;28;20245;-58
2023/05/20 09:05:22;;;;;;;3.70;2.38;;;;;;;;;;4986663;28;20210;-58
2023/05/20 09:07:50;;;;;;;2.97;2.78;;;;;;;;;;4990342;28;20297;-57
2023/05/20 09:10:18;;;;;;;2.38;2.28;;;;;;;;;;4999407;28;20552;-57
2023/05/20 09:12:45;;;;;;;2.83;2.72;;;;;;;;;;4991091;28;20577;-57
2023/05/20 09:15:12;;;;;;;3.97;3.78;;;;;;;;;;4992674;28;20221;-56
2023/05/20 09:17:39;;;;;;;3.58;3.28;;;;;;;;;;4987744;28;20668;-55
2023/05/20 09:20:08;;;;;;;3.00;2.60;;;;;;;;;;4998520;28;20235;-56
2023/05/20 09:22:35;;;;;;;3.28;2.88;;;;;;;;;;4990400;28;20707;-56
2023/05/20 09:25:04;;;;;;;3.88;3.58;;;;;;;;;;4967989;28;20225;-56
2023/05/20 09:27:31;;;;;;;2.97;2.75;;;;;;;;;;4967909;28;20339;-56
2023/05/20 09:29:58;;;;;;;3.42;3.22;;;;;;;;;;4967852;28;20216;-56
2023/05/20 09:32:27;;;;;;;3.30;3.10;;;;;;;;;;4965100;28;20202;-56
2023/05/20 09:34:54;;;;;;;2.47;2.28;;;;;;;;;;4984635;28;20409;-55
2023/05/20 09:37:22;;;;;;;3.33;3.08;;;;;;;;;;5006581;28;20668;-56
2023/05/20 09:39:55;;;;;;;3.35;3.03;;;;;;;;;;4984055;28;20743;-56
2023/05/20 09:42:27;;;;;;;6.15;2.60;;;;;;;;;;4977104;28;20210;-56
2023/05/20 09:44:55;;;;;;;2.55;2.35;;;;;;;;;;4982276;28;20203;-56
2023/05/20 09:47:23;;;;;;;3.47;3.28;;;;;;;;;;4973455;28;20210;-55
2023/05/20 09:49:51;;;;;;;3.60;3.30;;;;;;;;;;4977434;28;20304;-55
2023/05/20 09:52:18;;;;;;;2.83;2.70;;;;;;;;;;5006534;28;20213;-55
2023/05/20 09:54:46;;;;;;;2.83;2.45;;;;;;;;;;4998914;28;20260;-55
2023/05/20 09:57:13;;;;;;;3.05;2.85;;;;;;;;;;4989215;28;20233;-55
2023/05/20 09:59:41;;;;;;;3.40;3.05;;;;;;;;;;4972447;28;20677;-55
2023/05/20 10:02:09;;;;;;;3.45;3.25;;;;;;;;;;4989587;28;20260;-57
2023/05/20 10:04:38;;;;;;;3.40;3.20;;;;;;;;;;4989199;28;20293;-56
2023/05/20 10:07:32;;;;;;;2.88;2.70;;;;;;;;;;4978630;28;20214;-56
2023/05/20 10:10:03;;;;;;;4.47;3.40;;;;;;;;;;4962635;28;20233;-56
2023/05/20 10:12:34;;;;;;;2.60;2.47;;;;;;;;;;4986883;28;20272;-56
2023/05/20 10:15:10;;;;;;;3.08;2.88;;;;;;;;;;4989784;28;20922;-56
2023/05/20 10:17:40;;;;;;;3.85;3.45;;;;;;;;;;4971125;28;20305;-56
2023/05/20 10:20:10;;;;;;;2.38;2.17;;;;;;;;;;4979805;28;20237;-55
2023/05/20 10:22:37;;;;;;;3.70;3.33;;;;;;;;;;4987875;28;20269;-56
2023/05/20 10:25:06;;;;;;;3.40;3.20;;;;;;;;;;5005280;28;20236;-56
2023/05/20 10:27:42;;;;;;;3.33;3.13;;;;;;;;;;5011128;28;20616;-57
2023/05/20 10:30:17;;;;;;;3.30;3.10;;;;;;;;;;5008962;28;20627;-56
2023/05/20 10:32:49;;;;;;;3.83;3.63;;;;;;;;;;5000071;28;20295;-57
2023/05/20 10:35:21;;;;;;;3.55;3.25;;;;;;;;;;4996177;28;20233;-57
2023/05/20 10:37:48;;;;;;;3.38;2.83;;;;;;;;;;5008950;28;20223;-57
2023/05/20 10:40:16;;;;;;;3.80;3.25;;;;;;;;;;5008427;28;20558;-57
2023/05/20 10:42:43;;;;;;;3.03;2.70;;;;;;;;;;5008666;28;20504;-57
2023/05/20 10:45:11;;;;;;;2.92;2.83;;;;;;;;;;5008725;28;20197;-57
2023/05/20 10:47:43;;;;;;;2.25;2.10;;;;;;;;;;5008828;28;20217;-57
2023/05/20 10:50:15;;;;;;;3.78;3.30;;;;;;;;;;5003650;28;20286;-57
2023/05/20 10:52:42;;;;;;;3.60;3.28;;;;;;;;;;5006068;28;20213;-57
2023/05/20 10:55:19;;;;;;;3.53;3.28;;;;;;;;;;5000564;28;20346;-57
2023/05/20 10:57:46;;;;;;;2.75;2.55;;;;;;;;;;4998182;28;20212;-57
2023/05/20 11:00:14;;;;;;;3.03;2.83;;;;;;;;;;5008313;28;20269;-57
2023/05/20 11:02:43;;;;;;;3.00;2.88;;;;;;;;;;5008187;28;20209;-57
2023/05/20 11:05:11;;;;;;;3.92;3.60;;;;;;;;;;4993835;28;21055;-56
2023/05/20 11:07:38;;;;;;;2.17;1.65;;;;;;;;;;4994366;28;20205;-56
2023/05/20 11:10:09;;;;;;;2.10;2.00;;;;;;;;;;4999836;28;20209;-56
2023/05/20 11:12:36;;;;;;;1.67;1.58;;;;;;;;;;5006344;28;20605;-56
2023/05/20 11:15:04;;;;;;;2.05;1.60;;;;;;;;;;4987852;28;20209;-56
2023/05/20 11:17:31;;;;;;;3.13;2.40;;;;;;;;;;4987198;28;20241;-57
2023/05/20 11:20:00;;;;;;;3.85;3.55;;;;;;;;;;5002027;28;20233;-56
2023/05/20 11:22:27;;;;;;;2.33;2.22;;;;;;;;;;5005078;28;20241;-56
2023/05/20 11:24:54;;;;;;;3.88;3.58;;;;;;;;;;4991788;28;20245;-56
2023/05/20 11:27:21;;;;;;;3.47;3.17;;;;;;;;;;4988830;28;20673;-57
2023/05/20 11:29:50;;;;;;;3.00;2.75;;;;;;;;;;4992088;28;20205;-58
2023/05/20 11:32:19;;;;;;;1.90;1.80;;;;;;;;;;5007310;28;20205;-58
2023/05/20 11:34:47;;;;;;;3.13;2.92;;;;;;;;;;4996322;28;20215;-57
2023/05/20 11:37:16;;;;;;;3.70;2.38;;;;;;;;;;4988298;28;20240;-57
2023/05/20 11:39:43;;;;;;;2.90;2.65;;;;;;;;;;5007464;28;20217;-56
2023/05/20 11:42:10;;;;;;;3.00;2.50;;;;;;;;;;5007709;28;20638;-56
2023/05/20 11:44:37;;;;;;;2.90;2.80;;;;;;;;;;4989462;28;20212;-56
2023/05/20 11:47:04;;;;;;;3.95;3.17;;;;;;;;;;4988066;28;20214;-56
2023/05/20 11:49:39;;;;;;;3.15;2.47;;;;;;;;;;4989406;28;20218;-56
2023/05/20 11:52:08;;;;;;;4.13;2.97;;;;;;;;;;4992589;28;20215;-56
2023/05/20 11:54:37;;;;;;;4.68;2.20;;;;;;;;;;5001512;28;20607;-57
2023/05/20 11:57:04;;;;;;;9.38;3.80;;;;;;;;;;5007901;28;20560;-58
2023/05/20 11:59:31;;;;;;;5.30;3.28;;;;;;;;;;4992509;28;20633;-57
2023/05/20 12:01:58;;;;;;;3.60;3.28;;;;;;;;;;4987778;28;20218;-56
2023/05/20 12:07:29;;;;;;;4.18;3.88;;;;;;;;;;4993851;28;20701;-57
2023/05/20 12:09:57;;;;;;;3.40;3.20;;;;;;;;;;5006806;28;20216;-56
2023/05/20 12:12:24;;;;;;;3.58;3.35;;;;;;;;;;5001810;28;20264;-56
2023/05/20 12:14:51;;;;;;;4.60;2.92;;;;;;;;;;4986830;28;20221;-56
2023/05/20 12:17:18;;;;;;;2.05;1.95;;;;;;;;;;4987198;28;20853;-57
2023/05/20 12:19:45;;;;;;;4.45;2.63;;;;;;;;;;5006226;28;20382;-58
2023/05/20 12:22:12;;;;;;;3.92;3.63;;;;;;;;;;5003747;28;20303;-56
2023/05/20 12:24:39;;;;;;;1.88;1.77;;;;;;;;;;4987084;28;20221;-57
2023/05/20 12:27:09;;;;;;;3.70;3.40;;;;;;;;;;5003999;28;20201;-56
2023/05/20 12:29:36;;;;;;;2.67;2.47;;;;;;;;;;4999583;28;20276;-56
2023/05/20 12:32:03;;;;;;;2.72;2.53;;;;;;;;;;5002504;28;20267;-56
2023/05/20 12:34:30;;;;;;;2.67;2.58;;;;;;;;;;4994296;28;20213;-56
2023/05/20 12:36:57;;;;;;;3.38;3.17;;;;;;;;;;4997707;28;20798;-56
2023/05/20 12:39:24;;;;;;;3.10;2.90;;;;;;;;;;5004407;28;20201;-57
2023/05/20 12:41:51;;;;;;;3.25;2.95;;;;;;;;;;4999678;28;20219;-57
2023/05/20 12:44:20;;;;;;;4.78;3.70;;;;;;;;;;4997631;28;20848;-56
2023/05/20 12:46:48;;;;;;;2.55;2.42;;;;;;;;;;5005853;28;20272;-57
2023/05/20 12:49:15;;;;;;;3.78;3.47;;;;;;;;;;4997984;28;20202;-57
2023/05/20 12:51:42;;;;;;;2.83;2.63;;;;;;;;;;4990378;28;20208;-57
2023/05/20 12:54:09;;;;;;;3.55;3.10;;;;;;;;;;5005895;28;20209;-58
2023/05/20 12:56:36;;;;;;;3.22;3.03;;;;;;;;;;5002847;28;20225;-59
2023/05/20 12:59:03;;;;;;;2.80;2.60;;;;;;;;;;5000776;28;20216;-57
2023/05/20 13:01:31;;;;;;;3.40;3.20;;;;;;;;;;5019681;28;20204;-57
2023/05/20 13:03:58;;;;;;;3.90;3.30;;;;;;;;;;5023066;28;20208;-60
2023/05/20 13:06:25;;;;;;;3.45;3.13;;;;;;;;;;5005874;28;20216;-58
2023/05/20 13:08:52;;;;;;;3.55;3.25;;;;;;;;;;5006094;28;20216;-59
2023/05/20 13:11:20;;;;;;;3.55;3.25;;;;;;;;;;5002137;28;20220;-59
2023/05/20 13:13:47;;;;;;;3.35;3.05;;;;;;;;;;4987053;28;20224;-58
2023/05/20 13:16:15;;;;;;;4.20;3.90;;;;;;;;;;4992927;28;20725;-56
2023/05/20 13:18:43;;;;;;;2.28;2.17;;;;;;;;;;4986435;28;20256;-63
2023/05/20 13:21:11;;;;;;;3.58;3.03;;;;;;;;;;4991214;28;20240;-59
2023/05/20 13:23:38;;;;;;;3.20;2.10;;;;;;;;;;5015889;28;20271;-64
2023/05/20 13:26:05;;;;;;;3.25;2.97;;;;;;;;;;5004095;28;20204;-57
2023/05/20 13:28:32;;;;;;;3.10;2.78;;;;;;;;;;5011915;28;20311;-57
2023/05/20 13:31:00;;;;;;;3.70;3.38;;;;;;;;;;5010379;28;20234;-55
2023/05/20 13:33:27;;;;;;;2.90;2.70;;;;;;;;;;5010202;28;20208;-55
2023/05/20 13:35:55;;;;;;;3.45;3.17;;;;;;;;;;5009832;28;20208;-55
2023/05/20 13:38:22;;;;;;;4.30;4.00;;;;;;;;;;4994630;28;20618;-56
2023/05/20 13:40:49;;;;;;;4.15;3.47;;;;;;;;;;4991291;28;20214;-55
2023/05/20 13:43:17;;;;;;;3.20;2.90;;;;;;;;;;4988776;28;20591;-55
2023/05/20 13:45:44;;;;;;;3.13;2.83;;;;;;;;;;5000605;28;20214;-56
2023/05/20 13:48:11;;;;;;;5.55;4.18;;;;;;;;;;4990153;28;20210;-55
2023/05/20 13:50:38;;;;;;;4.80;4.40;;;;;;;;;;4992878;28;20432;-55
2023/05/20 13:53:11;;;;;;;6.53;3.90;;;;;;;;;;5002348;28;20213;-55
2023/05/20 13:55:38;;;;;;;4.25;3.92;;;;;;;;;;5009979;28;20418;-56
2023/05/20 13:58:07;;;;;;;4.53;4.13;;;;;;;;;;4999404;28;20228;-55
2023/05/20 14:00:34;;;;;;;4.68;4.15;;;;;;;;;;5008413;28;20383;-55
2023/05/20 14:03:03;;;;;;;2.35;2.22;;;;;;;;;;5008859;28;20637;-56
2023/05/20 14:05:31;;;;;;;2.42;2.25;;;;;;;;;;5008642;28;20216;-55
2023/05/20 14:07:58;;;;;;;3.67;3.38;;;;;;;;;;4990448;28;20473;-55
2023/05/20 14:10:27;;;;;;;5.80;4.22;;;;;;;;;;4992398;28;20592;-56
2023/05/20 14:12:54;;;;;;;3.10;2.90;;;;;;;;;;5006072;28;20928;-56
2023/05/20 14:15:21;;;;;;;4.05;3.75;;;;;;;;;;5013647;28;20217;-56
2023/05/20 14:17:48;;;;;;;3.00;2.67;;;;;;;;;;5008326;28;20932;-57
2023/05/20 14:20:16;;;;;;;7.47;4.18;;;;;;;;;;5000720;28;20289;-56
2023/05/20 14:22:43;;;;;;;3.50;3.20;;;;;;;;;;4989587;28;20340;-56
2023/05/20 14:25:10;;;;;;;3.47;3.17;;;;;;;;;;5005935;28;20209;-56
2023/05/20 14:27:38;;;;;;;4.90;4.28;;;;;;;;;;4992718;28;20217;-56
2023/05/20 14:30:06;;;;;;;4.35;3.78;;;;;;;;;;4990825;28;20217;-56
2023/05/20 14:32:33;;;;;;;3.50;3.22;;;;;;;;;;4990599;28;20213;-56
2023/05/20 14:35:00;;;;;;;4.28;2.60;;;;;;;;;;4999716;28;20204;-56
2023/05/20 14:37:27;;;;;;;4.63;3.10;;;;;;;;;;5026996;28;20264;-56
2023/05/20 14:39:54;;;;;;;4.68;4.28;;;;;;;;;;5009186;28;20221;-56
2023/05/20 14:42:21;;;;;;;4.88;4.40;;;;;;;;;;5008576;28;20572;-56
2023/05/20 14:44:50;;;;;;;3.40;3.20;;;;;;;;;;5006997;28;20894;-55
2023/05/20 14:47:20;;;;;;;5.07;4.55;;;;;;;;;;4992690;28;20723;-56
2023/05/20 14:49:48;;;;;;;4.40;4.00;;;;;;;;;;4993293;28;20634;-56